Weather at Miroslawiec Military Air Base

Public forecast

Using degrees Celsius for public forecast. Weather courtesy of forecast.io.

Closest aviation weather report (METAR) to Miroslawiec Military Air Base

Closest report is Szczecin-Goleniów "Solidarność" Airport, 43.7 nm (80.9 km) WNW. Retrieved 2022/05/22 17:30 UTC (11 minutes ago):

EPSC 221730Z 35007KT 320V020 9999 FEW034 15/07 Q1015

Closest aviation forecast (TAF) to Miroslawiec Military Air Base

Closest forecast is Szczecin-Goleniów "Solidarność" Airport, 43.7 nm (80.9 km) WNW. Retrieved 2022/05/22 12:33 UTC (5 hours ago):

TAF EPSC 221130Z 2212/2312 32008KT 9999 SCT045 PROB40 TEMPO 2212/2216 -SHRA SCT025TCU PROB40 2223/2305 3000 BR PROB30 TEMPO 2301/2305 0800 FG OVC002 BECMG 2305/2308 15010KT